WRG weather

Wrangell Airport
Wrangell, Alaska, United States

Public forecast

Using degrees Fahrenheit for public forecast. Weather courtesy of forecast.io.

METAR (pilot weather report)

Retrieved 2019/09/16 00:56 UTC (40 minutes ago):

PAWG 160056Z 21005KT 10SM FEW060 16/10 A2970

TAF (pilot weather forecast)

Forecast is more than 12 hours old.

Retrieved 2019/09/15 00:36 UTC (1 day ago):

TAF PAWG 152333Z 1600/1624 31005KT P6SM FEW010 SCT060 FM161100 12003KT 1/2SM FG BKN003 FM161500 10008KT P6SM VCSH SCT025 OVC050 FM161900 12010G20KT 6SM -RA BR BKN015 OVC025 AMD LTD TO CLD VIS AND WIND 1606/1615